Flight Track Log - Related Links

Times and Time Zones

All times are in EDT time to prevent confusion due to time zone crossing. See the SWA757 flight status page for this flight to view local times or setup timezone preferences in your user account.

Time Position Orientation Groundspeed Altitude Reporting Facility
EDT Latitude Longitude Course Direction KTS MPH feet Rate Location/Type
Tue 11:18:56 PM 37.3992 -121.9342 141° Southeast 250 288 2,900  Level Oakland Center
Tue 11:19:57 PM 37.3700 -121.8736 121° Southeast 228 262 6,400 3,246 Climbing Oakland Center
Tue 11:20:58 PM 37.3200 -121.8147 137° Southeast 252 290 9,500 3,443 Climbing Oakland Center
Tue 11:21:59 PM 37.2542 -121.7417 139° Southeast 313 360 13,400 3,689 Climbing Oakland Center
Tue 11:23:00 PM 37.1811 -121.6578 138° Southeast 351 404 17,000 3,295 Climbing Oakland Center
Tue 11:24:00 PM 36.8971 -121.4179 141° Southeast  Level Estimated
Tue 11:24:01 PM 37.1006 -121.5672 138° Southeast 383 441 20,100  Level Oakland Center
Tue 11:25:02 PM 37.0147 -121.4708 138° Southeast 403 464 23,700 3,197 Climbing Oakland Center
Tue 11:26:03 PM 36.9281 -121.3733 138° Southeast 418 481 26,600 2,705 Climbing Oakland Center
Tue 11:27:04 PM 36.8369 -121.2725 138° Southeast 434 499 29,200 2,459 Climbing Oakland Center
Tue 11:28:05 PM 36.7347 -121.1617 139° Southeast 444 511 31,600 2,361 Climbing Oakland Center
Tue 11:29:06 PM 36.6397 -121.0558 138° Southeast 455 524 34,000 2,361 Climbing Oakland Center
Tue 11:30:07 PM 36.5472 -120.9522 138° Southeast 449 517 36,400 2,164 Climbing Oakland Center
Tue 11:31:08 PM 36.4553 -120.8508 138° Southeast 442 509 38,400 1,672 Climbing Oakland Center
Tue 11:32:09 PM 36.3656 -120.7497 138° Southeast 437 503 39,800 1,230 Climbing Oakland Center
Tue 11:33:10 PM 36.2725 -120.6492 139° Southeast 442 509 40,900 595 Climbing Oakland Center
Tue 11:34:10 PM 36.1775 -120.5506 140° Southeast 446 513 41,000 50 Climbing Oakland Center
Tue 11:35:11 PM 36.0836 -120.4450 138° Southeast 458 527 41,000  Level Oakland Center
Tue 11:36:12 PM 35.9906 -120.3472 140° Southeast 433 498 41,000  Level Oakland Center
Tue 11:37:13 PM 35.8967 -120.2464 139° Southeast 442 509 41,000  Level Oakland Center
Tue 11:38:14 PM 35.8031 -120.1461 139° Southeast 443 510 41,000  Level Oakland Center
Tue 11:39:15 PM 35.6892 -120.0236 139° Southeast 448 516 41,000  Level Oakland Center
Tue 11:40:16 PM 35.5906 -119.9267 141° Southeast 448 516 41,000  Level Oakland Center
Tue 11:41:17 PM 35.4867 -119.8394 146° Southeast 448 516 41,000  Level Oakland Center
Tue 11:42:18 PM 35.3825 -119.7494 145° Southeast 452 520 41,000  Level Oakland Center
Tue 11:43:26 PM 35.2803 -119.6619 145° Southeast 451 519 41,000  Level Los Angeles Center
Tue 11:44:28 PM 35.1775 -119.5728 145° Southeast 452 520 41,000  Level Los Angeles Center
Tue 11:45:30 PM 35.0533 -119.4689 146° Southeast 449 517 41,000  Level Los Angeles Center
Tue 11:46:31 PM 34.9531 -119.3828 145° Southeast 444 511 41,000  Level Los Angeles Center
Tue 11:47:33 PM 34.8508 -119.2972 146° Southeast 444 511 41,000  Level Los Angeles Center
Tue 11:48:47 PM 34.7494 -119.2114 145° Southeast 443 510 41,000  Level Los Angeles Center
Tue 11:49:48 PM 34.6328 -119.1147 146° Southeast 440 506 41,000  Level Los Angeles Center
Tue 11:50:50 PM 34.5275 -119.0250 145° Southeast 442 509 41,000  Level Los Angeles Center
Tue 11:51:52 PM 34.4108 -118.9286 146° Southeast 440 506 41,000  Level Los Angeles Center
Tue 11:52:53 PM 34.3164 -118.8428 143° Southeast 428 493 41,000 -390 Level Los Angeles Center
Tue 11:53:55 PM 34.2281 -118.7450 138° Southeast 431 496 40,200 -878 Descending Los Angeles Center
Tue 11:54:56 PM 34.1383 -118.6506 139° Southeast 428 493 39,200 -927 Descending Los Angeles Center
Tue 11:55:58 PM 34.0503 -118.5581 139° Southeast 422 486 38,300 -878 Descending Los Angeles Center
Tue 11:56:59 PM 33.9614 -118.4631 138° Southeast 425 489 37,400 -1,512 Descending Los Angeles Center
Tue 11:58:01 PM 33.8767 -118.3594 135° Southeast 430 495 35,200 -2,585 Descending Los Angeles Center
Tue 11:59:02 PM 33.7803 -118.2408 134° Southeast 432 497 32,100 -2,585 Descending Los Angeles Center
Wed 12:00:04 AM 33.7069 -118.1411 131° Southeast 438 504 29,900 -2,000 Descending Los Angeles Center
Wed 12:01:05 AM 33.6272 -118.0411 134° Southeast 416 479 28,000 -1,951 Descending Los Angeles Center
Wed 12:02:07 AM 33.5508 -117.9453 134° Southeast 401 461 25,900 -2,000 Descending Los Angeles Center
Wed 12:03:08 AM 33.4769 -117.8519 133° Southeast 388 447 23,900 -2,146 Descending Los Angeles Center
Wed 12:04:10 AM 33.3919 -117.7439 133° Southeast 374 430 21,500 -1,822 Descending Los Angeles Center
Wed 12:05:23 AM 33.3231 -117.6583 134° Southeast 360 414 19,800 -1,937 Descending Los Angeles Center
Wed 12:06:17 AM 33.2500 -117.5667 134° Southeast 345 397 17,400 -2,200 Descending Southern California TRACON
Wed 12:07:23 AM 33.1667 -117.5000 146° Southeast 337 388 15,400 -1,736 Descending Southern California TRACON
Wed 12:08:18 AM 33.1000 -117.4333 140° Southeast 314 361 13,900 -1,826 Descending Southern California TRACON
Wed 12:09:18 AM 33.0333 -117.3833 148° Southeast 314 361 11,900 -1,800 Descending Southern California TRACON
Wed 12:10:18 AM 32.9500 -117.3167 146° Southeast 298 343 10,300 -1,550 Descending Southern California TRACON
Wed 12:11:18 AM 32.8833 -117.2667 148° Southeast 287 330 8,800 -1,550 Descending Southern California TRACON
Wed 12:12:18 AM 32.8333 -117.2000 132° Southeast 284 327 7,200 -1,579 Descending Southern California TRACON
Wed 12:12:34 AM 32.8264 -117.1861 121° Southeast 279 321 6,800 -1,013 Descending Los Angeles Center
Wed 12:13:35 AM 32.7831 -117.1297 132° Southeast 275 316 5,900 -982 Descending Los Angeles Center
Wed 12:14:24 AM 32.7667 -117.0500 104° East 248 285 5,000 -491 Descending Southern California TRACON
Wed 12:15:25 AM 32.7500 -116.9833 107° East 222 255 5,000 -248 Level Southern California TRACON
Wed 12:16:25 AM 32.7000 -116.9500 151° Southeast 216 249 4,500 -789 Descending Southern California TRACON
Wed 12:17:19 AM 32.6833 -117.0000 248° West 195 224 3,500 -1,350 Descending Southern California TRACON
Wed 12:18:25 AM 32.7000 -117.0667 287° West 175 201 1,800 -1,050 Descending Southern California TRACON
Wed 12:19:19 AM 32.7167 -117.1000 301° West 130 150 1,400 -550 Descending Southern California TRACON
Wed 12:20:25 AM 32.7167 -117.1500 270° West 128 147 700 -635 Descending Southern California TRACON
Wed 12:20:44 AM 32.7253 -117.1519 349° North 130 150 500 -370 Descending Los Angeles Center
Wed 12:21:46 AM 32.7378 -117.2000 287° West 130 150 200 -290 Descending Los Angeles Center
Wed 12:23:00 AM 32.7336 -117.1897 128° Southeast  Level Estimated

Login

Don't have an account? Register now (free) for customized features, flight alerts, and more!